Time;durP1;ratioP1;P1;durP2;ratioP2;P2;SDS_P1;SDS_P2;PMS_P1;PMS_P2;Temp;Humidity;BMP_temperature;BMP_pressure;BME280_temperature;BME280_humidity;BME280_pressure;Samples;Min_cycle;Max_cycle;Signal;HPM_P1;HPM_P2
2022/01/28 00:01:02;;;;;;;0.10;0.10;;;4.50;99.90;;;;;;5051424;28;20666;-68
2022/01/28 00:03:31;;;;;;;0.10;0.10;;;4.60;99.90;;;;;;5049677;28;20678;-68
2022/01/28 00:05:58;;;;;;;0.10;0.10;;;4.60;99.90;;;;;;5046990;28;20748;-70
2022/01/28 00:08:25;;;;;;;0.10;0.10;;;4.70;99.90;;;;;;5046719;28;20695;-68
2022/01/28 00:10:53;;;;;;;0.10;0.10;;;4.70;99.90;;;;;;5053258;28;20628;-69
2022/01/28 00:13:23;;;;;;;0.10;0.10;;;4.70;99.90;;;;;;5033491;28;20610;-68
2022/01/28 00:38:07;;;;;;;0.10;0.10;;;4.80;99.90;;;;;;5051035;28;20736;-69
2022/01/28 00:40:34;;;;;;;0.10;0.10;;;4.80;99.90;;;;;;5044589;28;20632;-69
2022/01/28 00:43:02;;;;;;;0.10;0.10;;;4.80;99.90;;;;;;5049226;28;20664;-67
2022/01/28 00:45:29;;;;;;;0.10;0.10;;;4.80;99.90;;;;;;5059815;28;21152;-68
2022/01/28 00:47:57;;;;;;;0.10;0.10;;;4.80;99.90;;;;;;5049699;28;20718;-68
2022/01/28 00:50:24;;;;;;;0.10;0.10;;;4.80;99.90;;;;;;5056269;28;20624;-68
2022/01/28 00:52:51;;;;;;;0.10;0.10;;;4.80;99.90;;;;;;5061229;28;20612;-67
2022/01/28 00:55:18;;;;;;;0.10;0.10;;;4.80;99.90;;;;;;5051528;28;20614;-69
2022/01/28 00:57:45;;;;;;;0.00;0.00;;;4.80;99.90;;;;;;5051572;28;20661;-67
2022/01/28 01:00:13;;;;;;;0.10;0.10;;;4.80;99.90;;;;;;5051680;28;21006;-67
2022/01/28 01:02:40;;;;;;;0.10;0.10;;;4.80;99.90;;;;;;5058081;28;20702;-68
2022/01/28 01:05:09;;;;;;;0.10;0.10;;;4.80;99.90;;;;;;5049761;28;20648;-68
2022/01/28 01:07:36;;;;;;;0.10;0.10;;;4.80;99.90;;;;;;5055545;28;20745;-68
2022/01/28 01:10:05;;;;;;;0.10;0.10;;;4.70;99.90;;;;;;5053737;28;20609;-68
2022/01/28 01:12:35;;;;;;;0.10;0.10;;;4.70;99.90;;;;;;5048379;28;20680;-67
2022/01/28 01:15:03;;;;;;;0.10;0.10;;;4.70;99.90;;;;;;5048147;28;20613;-68
2022/01/28 01:17:35;;;;;;;0.10;0.10;;;4.70;99.90;;;;;;5045333;28;20685;-68
2022/01/28 01:23:03;;;;;;;0.10;0.10;;;4.70;99.90;;;;;;5043152;28;20606;-67
2022/01/28 01:25:30;;;;;;;0.10;0.10;;;4.70;99.90;;;;;;5050821;28;20652;-68
2022/01/28 01:27:58;;;;;;;0.10;0.10;;;4.80;99.90;;;;;;5048470;28;20674;-68
2022/01/28 01:30:28;;;;;;;0.10;0.10;;;4.80;99.90;;;;;;5050469;28;21055;-68
2022/01/28 01:32:55;;;;;;;0.10;0.10;;;4.80;99.90;;;;;;5042068;28;20610;-68
2022/01/28 01:35:22;;;;;;;0.10;0.10;;;4.80;99.90;;;;;;5051455;28;20707;-68
2022/01/28 01:37:51;;;;;;;0.10;0.10;;;4.80;99.90;;;;;;5057374;28;20676;-70
2022/01/28 01:40:25;;;;;;;0.10;0.10;;;4.80;99.90;;;;;;5045319;28;20648;-68
2022/01/28 01:43:04;;;;;;;0.10;0.10;;;4.70;99.90;;;;;;5043316;28;20636;-67
2022/01/28 01:45:55;;;;;;;0.10;0.10;;;4.80;99.90;;;;;;5050551;28;21253;-68
2022/01/28 01:53:52;;;;;;;0.10;0.10;;;4.60;99.90;;;;;;5049906;28;20633;-68
2022/01/28 01:56:21;;;;;;;0.10;0.10;;;4.60;99.90;;;;;;5056449;28;20784;-67
2022/01/28 01:58:48;;;;;;;0.10;0.10;;;4.60;99.90;;;;;;5048898;28;20655;-69
2022/01/28 02:01:15;;;;;;;0.10;0.10;;;4.60;99.90;;;;;;5052646;28;20609;-66
2022/01/28 02:03:42;;;;;;;0.10;0.10;;;4.60;99.90;;;;;;5055859;28;20628;-68
2022/01/28 02:06:10;;;;;;;0.10;0.10;;;4.50;99.90;;;;;;5055510;28;20698;-67
2022/01/28 02:08:38;;;;;;;0.10;0.10;;;4.50;99.90;;;;;;5056740;28;21185;-67
2022/01/28 02:11:06;;;;;;;0.10;0.10;;;4.50;99.90;;;;;;5051952;28;20629;-67
2022/01/28 02:13:36;;;;;;;0.10;0.10;;;4.50;99.90;;;;;;5053491;28;20618;-70
2022/01/28 02:16:04;;;;;;;0.10;0.10;;;4.40;99.90;;;;;;5055568;28;20648;-68
2022/01/28 02:18:31;;;;;;;0.10;0.10;;;4.40;99.90;;;;;;5045724;28;20602;-69
2022/01/28 02:21:05;;;;;;;0.10;0.10;;;4.30;99.90;;;;;;5054503;28;20633;-67
2022/01/28 02:23:33;;;;;;;0.10;0.10;;;4.30;99.90;;;;;;5054818;28;20617;-69
2022/01/28 02:26:01;;;;;;;0.10;0.10;;;4.30;99.90;;;;;;5050066;28;20775;-67
2022/01/28 02:28:32;;;;;;;0.10;0.10;;;4.20;99.90;;;;;;5045221;28;20655;-70
2022/01/28 02:31:00;;;;;;;0.10;0.10;;;4.20;99.90;;;;;;5045053;28;20613;-67
2022/01/28 02:33:27;;;;;;;0.10;0.10;;;4.20;99.90;;;;;;5039591;28;20949;-67
2022/01/28 02:35:55;;;;;;;0.10;0.10;;;4.20;99.90;;;;;;5051437;28;20725;-68
2022/01/28 02:38:24;;;;;;;0.10;0.10;;;4.20;99.90;;;;;;5048035;28;20779;-68
2022/01/28 02:40:56;;;;;;;0.10;0.10;;;4.20;99.90;;;;;;5048887;28;20625;-68
2022/01/28 02:43:37;;;;;;;0.10;0.10;;;4.30;99.90;;;;;;5054138;28;20624;-70
2022/01/28 02:46:08;;;;;;;0.10;0.10;;;4.30;99.90;;;;;;5048280;28;20671;-69
2022/01/28 02:48:37;;;;;;;0.10;0.10;;;4.40;99.90;;;;;;5049889;28;20621;-67
2022/01/28 02:51:10;;;;;;;0.10;0.10;;;4.40;99.90;;;;;;5047885;28;20633;-68
2022/01/28 02:53:46;;;;;;;0.10;0.10;;;4.50;99.90;;;;;;5044367;28;20661;-67
2022/01/28 02:56:17;;;;;;;0.10;0.10;;;4.50;99.90;;;;;;5054160;28;20735;-68
2022/01/28 02:58:45;;;;;;;0.10;0.10;;;4.60;99.90;;;;;;5058371;28;20631;-68
2022/01/28 03:01:14;;;;;;;0.10;0.10;;;4.60;99.90;;;;;;5047515;28;20629;-67
2022/01/28 03:03:43;;;;;;;0.10;0.10;;;4.60;99.90;;;;;;5044576;28;20622;-67
2022/01/28 03:06:10;;;;;;;0.10;0.10;;;4.60;99.90;;;;;;5048981;28;20702;-67
2022/01/28 03:08:43;;;;;;;0.10;0.10;;;4.60;99.90;;;;;;5048688;28;20623;-67
2022/01/28 03:14:32;;;;;;;0.10;0.10;;;4.50;99.90;;;;;;4965674;28;20646;-67
2022/01/28 03:17:10;;;;;;;0.10;0.10;;;4.50;99.90;;;;;;4980772;28;20646;-67
2022/01/28 03:19:45;;;;;;;0.10;0.10;;;4.50;99.90;;;;;;5017112;28;20669;-68
2022/01/28 03:22:12;;;;;;;0.10;0.10;;;4.50;99.90;;;;;;5068640;28;20662;-67
2022/01/28 03:24:42;;;;;;;0.10;0.10;;;4.40;99.90;;;;;;5038555;28;20607;-67
2022/01/28 03:27:18;;;;;;;0.10;0.10;;;4.40;99.90;;;;;;5050998;28;20672;-67
2022/01/28 03:29:45;;;;;;;0.10;0.10;;;4.40;99.90;;;;;;5038466;28;20713;-67
2022/01/28 03:32:11;;;;;;;0.10;0.10;;;4.40;99.90;;;;;;5054394;28;20625;-68
2022/01/28 03:34:38;;;;;;;0.10;0.10;;;4.50;99.90;;;;;;5041965;28;20704;-68
2022/01/28 03:37:07;;;;;;;0.17;0.17;;;4.50;99.90;;;;;;5053970;28;20652;-67
2022/01/28 03:39:34;;;;;;;0.10;0.10;;;4.50;99.90;;;;;;5055554;28;20660;-67
2022/01/28 03:42:03;;;;;;;0.10;0.10;;;4.50;99.90;;;;;;5050776;28;20601;-68
2022/01/28 03:44:31;;;;;;;0.10;0.10;;;4.50;99.90;;;;;;5053145;28;20663;-67
2022/01/28 03:46:57;;;;;;;0.10;0.10;;;4.50;99.90;;;;;;5044546;28;20768;-66
2022/01/28 03:49:24;;;;;;;0.10;0.10;;;4.50;99.90;;;;;;5053115;28;20609;-67
2022/01/28 03:51:51;;;;;;;0.10;0.10;;;4.40;99.90;;;;;;5043520;28;20699;-68
2022/01/28 03:54:19;;;;;;;0.10;0.10;;;4.40;99.90;;;;;;5047309;28;20653;-68
2022/01/28 03:56:45;;;;;;;0.10;0.10;;;4.40;99.90;;;;;;5046002;28;21038;-67
2022/01/28 03:59:14;;;;;;;0.10;0.10;;;4.30;99.90;;;;;;5044952;28;20618;-67
2022/01/28 04:01:44;;;;;;;0.10;0.10;;;4.20;99.90;;;;;;5036986;28;20718;-68
2022/01/28 04:12:28;;;;;;;0.10;0.10;;;4.00;99.90;;;;;;5048943;28;20612;-67
2022/01/28 04:15:07;;;;;;;0.10;0.10;;;4.00;99.90;;;;;;5050141;28;20615;-67
2022/01/28 04:17:35;;;;;;;0.10;0.10;;;4.00;99.90;;;;;;5045549;28;20717;-66
2022/01/28 04:20:02;;;;;;;0.10;0.10;;;3.90;99.90;;;;;;5054217;28;20602;-67
2022/01/28 04:22:29;;;;;;;0.10;0.10;;;3.90;99.90;;;;;;5053526;28;20638;-68
2022/01/28 04:24:56;;;;;;;0.10;0.10;;;3.90;99.90;;;;;;5061650;28;20632;-68
2022/01/28 04:27:23;;;;;;;0.10;0.10;;;3.90;99.90;;;;;;5057691;28;20748;-67
2022/01/28 04:29:50;;;;;;;0.10;0.10;;;3.90;99.90;;;;;;5052181;28;20654;-67
2022/01/28 04:32:19;;;;;;;0.10;0.10;;;3.80;99.90;;;;;;5055356;28;20652;-66
2022/01/28 04:34:46;;;;;;;0.10;0.10;;;3.80;99.90;;;;;;5057004;28;20634;-68
2022/01/28 04:37:22;;;;;;;0.10;0.10;;;3.80;99.90;;;;;;5044235;28;20680;-68
2022/01/28 04:39:53;;;;;;;0.10;0.10;;;3.80;99.90;;;;;;5052731;28;20619;-67
2022/01/28 04:42:45;;;;;;;0.10;0.10;;;3.80;99.90;;;;;;5052530;28;20668;-68
2022/01/28 04:45:19;;;;;;;0.10;0.10;;;3.90;99.90;;;;;;5054064;28;20625;-68
2022/01/28 04:47:59;;;;;;;0.10;0.10;;;3.90;99.90;;;;;;5054128;28;20728;-68
2022/01/28 04:50:35;;;;;;;0.10;0.10;;;3.90;99.90;;;;;;5057043;28;20620;-69
2022/01/28 04:53:16;;;;;;;0.10;0.10;;;3.90;99.90;;;;;;5059839;28;20628;-67
2022/01/28 04:56:06;;;;;;;0.10;0.10;;;3.90;99.90;;;;;;5055602;28;20600;-68
2022/01/28 04:58:48;;;;;;;0.10;0.10;;;4.00;99.90;;;;;;5044873;28;20623;-69
2022/01/28 05:04:11;;;;;;;0.10;0.10;;;4.00;99.90;;;;;;5051481;28;20614;-68
2022/01/28 05:07:24;;;;;;;0.10;0.10;;;4.00;99.90;;;;;;5050051;28;20680;-67
2022/01/28 05:12:53;;;;;;;0.10;0.10;;;4.00;99.90;;;;;;5052558;28;20988;-67
2022/01/28 05:24:08;;;;;;;0.10;0.10;;;4.00;99.90;;;;;;5051253;28;20597;-67
2022/01/28 05:26:37;;;;;;;0.10;0.10;;;4.00;99.90;;;;;;5055698;28;20672;-67
2022/01/28 05:29:05;;;;;;;0.10;0.10;;;4.00;99.90;;;;;;5049082;28;20664;-68
2022/01/28 05:31:32;;;;;;;0.10;0.10;;;4.10;99.90;;;;;;5055909;28;20713;-68
2022/01/28 05:33:59;;;;;;;0.10;0.10;;;4.10;99.90;;;;;;5050437;28;20707;-68
2022/01/28 05:36:27;;;;;;;0.10;0.10;;;4.10;99.90;;;;;;5058120;28;20645;-68
2022/01/28 05:38:54;;;;;;;0.10;0.10;;;4.10;99.90;;;;;;5055289;28;20637;-67
2022/01/28 05:41:22;;;;;;;0.10;0.10;;;4.10;99.90;;;;;;5060314;28;20617;-69
2022/01/28 05:43:52;;;;;;;0.10;0.10;;;4.20;99.90;;;;;;5047757;28;20708;-68
2022/01/28 05:46:19;;;;;;;0.10;0.10;;;4.20;99.90;;;;;;5066200;28;20765;-67
2022/01/28 05:48:46;;;;;;;0.10;0.10;;;4.20;99.90;;;;;;5048291;28;20626;-68
2022/01/28 05:51:13;;;;;;;0.10;0.10;;;4.20;99.90;;;;;;5049479;28;21768;-67
2022/01/28 05:53:41;;;;;;;0.10;0.10;;;4.20;99.90;;;;;;5042259;28;20630;-67
2022/01/28 05:56:08;;;;;;;0.10;0.10;;;4.20;99.90;;;;;;5050197;28;20659;-67
2022/01/28 05:58:35;;;;;;;0.10;0.10;;;4.20;99.90;;;;;;5042793;28;20626;-67
2022/01/28 06:01:02;;;;;;;0.10;0.10;;;4.20;99.90;;;;;;5046704;28;20686;-68
2022/01/28 06:03:29;;;;;;;0.10;0.10;;;4.10;99.90;;;;;;5045988;28;20641;-67
2022/01/28 06:05:56;;;;;;;0.10;0.10;;;4.10;99.90;;;;;;5047620;28;20752;-68
2022/01/28 06:08:23;;;;;;;0.10;0.10;;;4.10;99.90;;;;;;5039308;28;20678;-68
2022/01/28 06:10:52;;;;;;;0.13;0.13;;;4.10;99.90;;;;;;5054162;28;21210;-68
2022/01/28 06:13:19;;;;;;;0.10;0.10;;;4.10;99.90;;;;;;5043054;28;20610;-67
2022/01/28 06:15:46;;;;;;;0.10;0.10;;;4.10;99.90;;;;;;5050297;28;21225;-67
2022/01/28 06:18:14;;;;;;;0.10;0.10;;;4.10;99.90;;;;;;5045344;28;20627;-68
2022/01/28 06:20:41;;;;;;;0.10;0.10;;;4.10;99.90;;;;;;5052438;28;20601;-69
2022/01/28 06:23:08;;;;;;;0.10;0.10;;;4.10;99.90;;;;;;5040532;28;20638;-69
2022/01/28 06:25:35;;;;;;;0.10;0.10;;;4.00;99.90;;;;;;5048887;28;20621;-68
2022/01/28 06:28:04;;;;;;;0.10;0.10;;;4.00;99.90;;;;;;5045290;28;20668;-70
2022/01/28 06:30:33;;;;;;;0.10;0.10;;;3.90;99.90;;;;;;5040463;28;20671;-68
2022/01/28 06:33:00;;;;;;;0.10;0.10;;;3.90;99.90;;;;;;5044186;28;20632;-67
2022/01/28 06:35:27;;;;;;;0.10;0.10;;;3.90;99.90;;;;;;5046537;28;20625;-69
2022/01/28 06:37:54;;;;;;;0.10;0.10;;;3.90;99.90;;;;;;5041588;28;20769;-68
2022/01/28 06:40:22;;;;;;;0.10;0.10;;;3.80;99.90;;;;;;5041200;28;20622;-68
2022/01/28 06:42:51;;;;;;;0.10;0.10;;;3.80;99.90;;;;;;5037834;28;20620;-66
2022/01/28 06:45:19;;;;;;;0.10;0.10;;;3.80;99.90;;;;;;5049051;28;20639;-67
2022/01/28 06:47:46;;;;;;;0.10;0.10;;;3.80;99.90;;;;;;5050082;28;20666;-67
2022/01/28 06:50:13;;;;;;;0.10;0.10;;;3.80;99.90;;;;;;5048300;28;21341;-66
2022/01/28 06:52:41;;;;;;;0.10;0.10;;;3.80;99.90;;;;;;5053572;28;20637;-68
2022/01/28 06:55:10;;;;;;;0.10;0.10;;;3.70;99.90;;;;;;5043410;28;20641;-67
2022/01/28 06:57:37;;;;;;;0.10;0.10;;;3.70;99.90;;;;;;5041206;28;20656;-68
2022/01/28 07:00:07;;;;;;;0.10;0.10;;;3.70;99.90;;;;;;5035541;28;20618;-66
2022/01/28 07:02:36;;;;;;;0.10;0.10;;;3.70;99.90;;;;;;5042532;28;20713;-68
2022/01/28 07:05:03;;;;;;;0.10;0.10;;;3.70;99.90;;;;;;5046159;28;20637;-67
2022/01/28 07:07:30;;;;;;;0.10;0.10;;;3.70;99.90;;;;;;5039118;28;20737;-67
2022/01/28 07:09:57;;;;;;;0.10;0.10;;;3.70;99.90;;;;;;5042315;28;20618;-67
2022/01/28 07:12:24;;;;;;;0.10;0.10;;;3.70;99.90;;;;;;5039867;28;20623;-66
2022/01/28 07:14:53;;;;;;;0.10;0.10;;;3.70;99.90;;;;;;5036698;28;20629;-68
2022/01/28 07:17:20;;;;;;;0.10;0.10;;;3.60;99.90;;;;;;5042315;28;20655;-67
2022/01/28 07:19:49;;;;;;;0.10;0.10;;;3.70;99.90;;;;;;5040171;28;20721;-68
2022/01/28 07:22:16;;;;;;;0.10;0.10;;;3.70;99.90;;;;;;5048137;28;20626;-67
2022/01/28 07:24:43;;;;;;;0.10;0.10;;;3.80;99.90;;;;;;5045608;28;20962;-67
2022/01/28 07:27:10;;;;;;;0.10;0.10;;;3.80;99.90;;;;;;5041791;28;21060;-68
2022/01/28 07:29:37;;;;;;;0.10;0.10;;;3.80;99.90;;;;;;5041943;28;20628;-69
2022/01/28 07:32:05;;;;;;;0.10;0.10;;;3.90;99.90;;;;;;5042258;28;20614;-66
2022/01/28 07:34:32;;;;;;;0.10;0.10;;;3.90;99.90;;;;;;5043683;28;20622;-67
2022/01/28 07:37:01;;;;;;;0.10;0.10;;;3.90;99.90;;;;;;5037980;28;20637;-68
2022/01/28 07:39:30;;;;;;;0.10;0.10;;;3.90;99.90;;;;;;5037532;28;20623;-68
2022/01/28 07:41:58;;;;;;;0.10;0.10;;;4.00;99.90;;;;;;5038332;28;20654;-66
2022/01/28 07:44:25;;;;;;;0.10;0.10;;;4.00;99.90;;;;;;5042145;28;20617;-68
2022/01/28 07:46:52;;;;;;;0.10;0.10;;;4.10;99.90;;;;;;5036438;28;20670;-67
2022/01/28 07:49:20;;;;;;;0.13;0.13;;;4.10;99.90;;;;;;5040262;28;20711;-67
2022/01/28 07:51:48;;;;;;;0.10;0.10;;;4.10;99.90;;;;;;5036389;28;20628;-66
2022/01/28 07:54:18;;;;;;;0.10;0.10;;;4.10;99.90;;;;;;5043479;28;20721;-66
2022/01/28 07:56:51;;;;;;;0.10;0.10;;;4.20;99.90;;;;;;5041645;28;20760;-67
2022/01/28 07:59:20;;;;;;;0.10;0.10;;;4.20;99.90;;;;;;5040164;28;20623;-69
2022/01/28 08:01:47;;;;;;;0.10;0.10;;;4.20;99.90;;;;;;5038232;28;20622;-67
2022/01/28 08:04:14;;;;;;;0.10;0.10;;;4.20;99.90;;;;;;5044619;28;20636;-68
2022/01/28 08:06:41;;;;;;;0.10;0.10;;;4.20;99.90;;;;;;5039067;28;20672;-68
2022/01/28 08:09:09;;;;;;;0.10;0.10;;;4.20;99.90;;;;;;5042064;28;20604;-68
2022/01/28 08:11:37;;;;;;;0.10;0.10;;;4.30;99.90;;;;;;5043164;28;20703;-67
2022/01/28 08:14:04;;;;;;;0.10;0.10;;;4.30;99.90;;;;;;5048336;28;20633;-68
2022/01/28 08:16:31;;;;;;;0.10;0.10;;;4.30;99.90;;;;;;5037906;28;20866;-67
2022/01/28 08:18:58;;;;;;;0.10;0.10;;;4.30;99.90;;;;;;5046107;28;20609;-65
2022/01/28 08:21:25;;;;;;;0.10;0.10;;;4.30;99.90;;;;;;5046922;28;20625;-68
2022/01/28 08:23:52;;;;;;;0.10;0.10;;;4.40;99.90;;;;;;5044650;28;20623;-70
2022/01/28 08:26:19;;;;;;;0.10;0.10;;;4.50;99.90;;;;;;5045605;28;20659;-68
2022/01/28 08:28:48;;;;;;;0.10;0.10;;;4.50;99.90;;;;;;5041244;28;20745;-67
2022/01/28 08:31:16;;;;;;;0.20;0.20;;;4.50;99.90;;;;;;5050139;28;21178;-69
2022/01/28 08:33:42;;;;;;;0.10;0.10;;;4.60;99.90;;;;;;5036976;28;20701;-67
2022/01/28 08:36:10;;;;;;;0.10;0.10;;;4.70;99.90;;;;;;5043832;28;20654;-68
2022/01/28 08:38:43;;;;;;;0.10;0.10;;;4.90;99.90;;;;;;5042412;28;20711;-67
2022/01/28 08:41:12;;;;;;;0.10;0.10;;;5.00;99.90;;;;;;5041553;28;20634;-67
2022/01/28 08:43:39;;;;;;;0.10;0.10;;;5.00;99.90;;;;;;5033150;28;21178;-69
2022/01/28 08:46:08;;;;;;;0.10;0.10;;;5.00;99.90;;;;;;5035334;28;20676;-68
2022/01/28 08:48:35;;;;;;;0.10;0.10;;;4.90;99.90;;;;;;5040785;28;20661;-68
2022/01/28 08:51:02;;;;;;;0.00;0.00;;;4.90;99.90;;;;;;5041880;28;20678;-68
2022/01/28 08:53:29;;;;;;;0.10;0.10;;;4.90;99.90;;;;;;5046521;28;20641;-67
2022/01/28 08:55:56;;;;;;;0.10;0.10;;;4.80;99.90;;;;;;5044034;28;20628;-69
2022/01/28 08:58:23;;;;;;;0.10;0.10;;;4.80;99.90;;;;;;5037694;28;20614;-68
2022/01/28 09:00:52;;;;;;;0.10;0.10;;;4.80;99.90;;;;;;5034078;28;20710;-67
2022/01/28 09:03:21;;;;;;;0.10;0.10;;;4.80;99.90;;;;;;5045142;28;20652;-69
2022/01/28 09:05:48;;;;;;;0.10;0.10;;;4.80;99.90;;;;;;5052305;28;21242;-69
2022/01/28 09:08:16;;;;;;;0.10;0.10;;;4.80;99.90;;;;;;5041751;28;20645;-69
2022/01/28 09:10:45;;;;;;;0.10;0.10;;;4.90;99.90;;;;;;5044919;28;20617;-69
2022/01/28 09:13:23;;;;;;;0.10;0.10;;;5.00;99.90;;;;;;5039135;28;20621;-70
2022/01/28 09:15:50;;;;;;;0.10;0.10;;;5.10;99.90;;;;;;5048087;28;20623;-67
2022/01/28 09:18:19;;;;;;;0.10;0.10;;;5.20;99.90;;;;;;5043669;28;20617;-68
2022/01/28 09:20:47;;;;;;;0.10;0.10;;;5.30;99.90;;;;;;5052023;28;20629;-69
2022/01/28 09:23:14;;;;;;;0.10;0.10;;;5.30;99.90;;;;;;5046708;28;21273;-68
2022/01/28 09:25:42;;;;;;;0.10;0.10;;;5.30;99.90;;;;;;5047976;28;20737;-69
2022/01/28 09:28:09;;;;;;;0.10;0.10;;;5.40;99.90;;;;;;5042544;28;20650;-69
2022/01/28 09:30:36;;;;;;;0.10;0.10;;;5.50;99.90;;;;;;5038758;28;20627;-68
2022/01/28 09:33:04;;;;;;;0.10;0.10;;;5.60;99.90;;;;;;5035843;28;20692;-69
2022/01/28 09:35:34;;;;;;;0.10;0.10;;;5.70;99.90;;;;;;5037760;28;20646;-69
2022/01/28 09:38:01;;;;;;;0.10;0.10;;;5.90;99.90;;;;;;5044884;28;20651;-71
2022/01/28 09:40:29;;;;;;;0.10;0.10;;;6.00;99.90;;;;;;5050822;28;20650;-69
2022/01/28 09:42:56;;;;;;;0.10;0.10;;;;;;;;;;5059217;28;20632;-69
2022/01/28 09:45:25;;;;;;;0.10;0.10;;;6.20;99.90;;;;;;5055330;28;20617;-69
2022/01/28 09:47:54;;;;;;;0.10;0.10;;;6.30;99.90;;;;;;5052576;28;20672;-70
2022/01/28 09:50:23;;;;;;;0.10;0.10;;;6.40;99.90;;;;;;5069155;28;20656;-68
2022/01/28 09:52:53;;;;;;;0.10;0.10;;;6.50;99.90;;;;;;5053759;28;20622;-68
2022/01/28 09:55:21;;;;;;;0.10;0.10;;;6.40;99.90;;;;;;5045653;28;20614;-69
2022/01/28 09:57:52;;;;;;;0.10;0.10;;;6.30;99.90;;;;;;5064387;28;20661;-68
2022/01/28 10:00:22;;;;;;;0.10;0.10;;;6.20;99.90;;;;;;5048814;28;20621;-72
2022/01/28 10:02:52;;;;;;;0.10;0.10;;;6.20;99.90;;;;;;5063115;28;20628;-71
2022/01/28 10:05:21;;;;;;;0.10;0.10;;;6.20;99.90;;;;;;5051902;28;20650;-70
2022/01/28 10:08:09;;;;;;;0.10;0.10;;;6.10;99.90;;;;;;5053618;28;20758;-67
2022/01/28 10:11:06;;;;;;;0.10;0.10;;;6.20;99.90;;;;;;5054717;28;20632;-69
2022/01/28 10:13:39;;;;;;;0.10;0.10;;;6.30;99.90;;;;;;5046695;28;20680;-69
2022/01/28 10:16:12;;;;;;;0.10;0.10;;;6.30;99.90;;;;;;5050304;28;20655;-69
2022/01/28 10:18:51;;;;;;;0.10;0.10;;;6.40;99.90;;;;;;5053395;28;20609;-68
2022/01/28 10:21:25;;;;;;;0.10;0.10;;;6.40;99.90;;;;;;5064853;28;20694;-68
2022/01/28 10:24:08;;;;;;;0.10;0.10;;;6.40;99.90;;;;;;5051523;28;20672;-66
2022/01/28 10:26:39;;;;;;;0.10;0.10;;;6.40;99.90;;;;;;5057798;28;20664;-68
2022/01/28 10:29:08;;;;;;;0.10;0.10;;;6.40;99.90;;;;;;5057634;28;20660;-68
2022/01/28 10:31:37;;;;;;;0.10;0.10;;;6.50;99.90;;;;;;5052275;28;20695;-69
2022/01/28 10:34:16;;;;;;;0.10;0.10;;;6.50;99.90;;;;;;5056309;28;20636;-68
2022/01/28 10:36:44;;;;;;;0.00;0.00;;;6.50;99.90;;;;;;5052524;28;20649;-68
2022/01/28 10:39:18;;;;;;;0.10;0.10;;;6.40;99.90;;;;;;5049873;28;20708;-70
2022/01/28 10:41:57;;;;;;;0.10;0.10;;;6.30;99.90;;;;;;5052607;28;20724;-70
2022/01/28 10:44:25;;;;;;;0.00;0.00;;;6.30;99.90;;;;;;5040607;28;20973;-68
2022/01/28 10:46:56;;;;;;;0.10;0.10;;;6.30;99.90;;;;;;5050740;28;20665;-68
2022/01/28 10:49:32;;;;;;;0.10;0.10;;;6.30;99.90;;;;;;5052328;28;20661;-68
2022/01/28 10:52:08;;;;;;;0.10;0.10;;;6.30;99.90;;;;;;5055413;28;20621;-67
2022/01/28 10:54:37;;;;;;;0.10;0.10;;;6.30;99.90;;;;;;5055735;28;20628;-68
2022/01/28 10:57:07;;;;;;;0.10;0.10;;;6.30;99.90;;;;;;5054719;28;20648;-68
2022/01/28 10:59:37;;;;;;;0.10;0.10;;;6.30;99.90;;;;;;5059412;28;21193;-66
2022/01/28 11:02:06;;;;;;;0.10;0.10;;;6.30;99.90;;;;;;5069838;28;20666;-67
2022/01/28 11:04:34;;;;;;;0.10;0.10;;;6.40;99.90;;;;;;5054686;28;20644;-67
2022/01/28 11:07:03;;;;;;;0.10;0.10;;;6.50;99.90;;;;;;5057820;28;20664;-70
2022/01/28 11:09:30;;;;;;;0.00;0.00;;;6.60;99.90;;;;;;5055211;28;20689;-68
2022/01/28 11:12:00;;;;;;;0.10;0.10;;;6.60;99.90;;;;;;5059596;28;20622;-70
2022/01/28 11:14:28;;;;;;;0.10;0.10;;;6.50;99.90;;;;;;5053575;28;20687;-69
2022/01/28 11:16:56;;;;;;;0.10;0.10;;;6.50;99.90;;;;;;5048125;28;20657;-70
2022/01/28 11:19:24;;;;;;;0.00;0.00;;;6.60;99.90;;;;;;5050478;28;20637;-69
2022/01/28 11:22:11;;;;;;;0.10;0.10;;;6.70;99.90;;;;;;5059591;28;20633;-70
2022/01/28 11:25:05;;;;;;;0.10;0.10;;;6.80;99.90;;;;;;5050694;28;21220;-71
2022/01/28 11:27:35;;;;;;;0.10;0.10;;;7.00;99.90;;;;;;5051104;28;20671;-69
2022/01/28 11:30:17;;;;;;;0.10;0.10;;;7.00;99.90;;;;;;5048398;28;20649;-68
2022/01/28 11:32:59;;;;;;;0.10;0.10;;;7.10;99.90;;;;;;5056386;28;20612;-69
2022/01/28 11:35:28;;;;;;;0.10;0.10;;;7.40;99.90;;;;;;5045207;28;20633;-70
2022/01/28 11:38:02;;;;;;;0.10;0.10;;;7.50;99.90;;;;;;5054759;28;21268;-71
2022/01/28 11:40:42;;;;;;;0.10;0.10;;;7.60;99.90;;;;;;5047111;28;20626;-69
2022/01/28 11:43:22;;;;;;;0.10;0.10;;;7.60;99.90;;;;;;5058432;28;20600;-70
2022/01/28 11:46:07;;;;;;;0.10;0.10;;;7.60;99.90;;;;;;5051111;28;20628;-70
2022/01/28 11:49:10;;;;;;;0.10;0.10;;;7.60;99.90;;;;;;5046178;28;20715;-68
2022/01/28 11:51:41;;;;;;;0.10;0.10;;;7.60;99.90;;;;;;5049467;28;20665;-70
2022/01/28 11:54:10;;;;;;;0.10;0.10;;;7.50;99.90;;;;;;5036021;28;20622;-68
2022/01/28 11:56:39;;;;;;;0.10;0.10;;;7.40;99.90;;;;;;5052392;28;20730;-68
2022/01/28 11:59:09;;;;;;;0.10;0.10;;;7.40;99.90;;;;;;5052925;28;20708;-69
2022/01/28 12:02:08;;;;;;;0.10;0.10;;;7.40;99.90;;;;;;5042495;28;20628;-69
2022/01/28 12:04:36;;;;;;;0.10;0.10;;;7.40;99.90;;;;;;5048219;28;20630;-69
2022/01/28 12:07:05;;;;;;;0.10;0.10;;;7.50;99.90;;;;;;5051388;28;20727;-70
2022/01/28 12:09:34;;;;;;;0.10;0.10;;;7.50;99.90;;;;;;5052447;28;21241;-69
2022/01/28 12:12:02;;;;;;;0.10;0.10;;;7.60;99.90;;;;;;5052672;28;20632;-69
2022/01/28 12:14:58;;;;;;;0.10;0.10;;;7.60;99.90;;;;;;5057344;28;20621;-69
2022/01/28 12:17:40;;;;;;;0.10;0.10;;;7.60;99.90;;;;;;5056237;28;20669;-70
2022/01/28 12:20:12;;;;;;;0.10;0.10;;;7.60;99.90;;;;;;5058897;28;20652;-69
2022/01/28 12:23:13;;;;;;;0.10;0.10;;;7.60;99.90;;;;;;5061423;28;20649;-70
2022/01/28 12:25:54;;;;;;;0.10;0.10;;;7.60;99.90;;;;;;5056001;28;20640;-70
2022/01/28 12:28:23;;;;;;;0.10;0.10;;;7.50;99.90;;;;;;5045363;28;20659;-69
2022/01/28 12:30:57;;;;;;;0.10;0.10;;;7.50;99.90;;;;;;5053821;28;20651;-69
2022/01/28 12:33:27;;;;;;;0.10;0.10;;;7.40;99.90;;;;;;5051143;28;20612;-68
2022/01/28 12:35:56;;;;;;;0.10;0.10;;;7.40;99.90;;;;;;5054024;28;20652;-68
2022/01/28 12:38:26;;;;;;;0.10;0.10;;;7.40;99.90;;;;;;5051851;28;20639;-68
2022/01/28 12:40:54;;;;;;;0.10;0.10;;;7.30;99.90;;;;;;5056274;28;21198;-68
2022/01/28 12:43:26;;;;;;;0.00;0.00;;;7.30;99.90;;;;;;5055033;28;20645;-65
2022/01/28 12:46:03;;;;;;;0.10;0.10;;;7.30;99.90;;;;;;5050528;28;20636;-65
2022/01/28 12:48:30;;;;;;;0.10;0.10;;;7.30;99.90;;;;;;5053419;28;21217;-69
2022/01/28 12:51:00;;;;;;;0.10;0.10;;;7.30;99.90;;;;;;5044564;28;20636;-69
2022/01/28 12:53:29;;;;;;;0.10;0.10;;;7.30;99.90;;;;;;5052918;28;20661;-69
2022/01/28 12:55:56;;;;;;;0.10;0.10;;;7.30;99.90;;;;;;5045881;28;20664;-70
2022/01/28 12:58:34;;;;;;;0.10;0.10;;;7.30;99.90;;;;;;5063006;28;20658;-70
2022/01/28 13:01:10;;;;;;;0.00;0.00;;;7.30;99.90;;;;;;5057230;28;20620;-70
2022/01/28 13:03:46;;;;;;;0.10;0.10;;;7.20;99.90;;;;;;5060065;28;20639;-70
2022/01/28 13:06:25;;;;;;;0.10;0.10;;;7.20;99.90;;;;;;5055042;28;20699;-69
2022/01/28 13:08:56;;;;;;;0.10;0.10;;;7.20;99.90;;;;;;5058638;28;20753;-69
2022/01/28 13:11:24;;;;;;;0.10;0.10;;;7.20;99.90;;;;;;5053960;28;20649;-67
2022/01/28 13:13:54;;;;;;;0.10;0.10;;;7.20;99.90;;;;;;5059577;28;20619;-66
2022/01/28 13:16:36;;;;;;;0.10;0.10;;;7.20;99.90;;;;;;5050896;28;20644;-70
2022/01/28 13:19:05;;;;;;;0.00;0.00;;;7.20;99.90;;;;;;5062091;28;20635;-69
2022/01/28 13:21:33;;;;;;;0.10;0.10;;;7.20;99.90;;;;;;5057686;28;20725;-68
2022/01/28 13:24:09;;;;;;;0.10;0.10;;;7.20;99.90;;;;;;5052773;28;20601;-69
2022/01/28 13:26:37;;;;;;;0.10;0.10;;;7.20;99.90;;;;;;5045480;28;20665;-69
2022/01/28 13:29:09;;;;;;;0.10;0.10;;;7.20;99.90;;;;;;5042983;28;20739;-69
2022/01/28 13:31:38;;;;;;;0.10;0.10;;;7.20;99.90;;;;;;5046855;28;20620;-68
2022/01/28 13:34:10;;;;;;;0.10;0.10;;;7.30;99.90;;;;;;5057177;28;20620;-71
2022/01/28 13:36:49;;;;;;;0.10;0.10;;;7.30;99.90;;;;;;5045359;28;20652;-70
2022/01/28 13:39:19;;;;;;;0.10;0.10;;;7.40;99.90;;;;;;5041070;28;20702;-69
2022/01/28 13:41:50;;;;;;;0.00;0.00;;;7.40;99.90;;;;;;5041086;28;20628;-69
2022/01/28 13:44:25;;;;;;;0.10;0.10;;;7.40;99.90;;;;;;5045044;28;20613;-70
2022/01/28 13:46:59;;;;;;;0.10;0.10;;;7.40;99.90;;;;;;5043445;28;20656;-69
2022/01/28 13:49:31;;;;;;;0.10;0.10;;;7.40;99.90;;;;;;5040860;28;21288;-69
2022/01/28 13:52:28;;;;;;;0.10;0.10;;;7.40;99.90;;;;;;5045004;28;20621;-70
2022/01/28 13:54:55;;;;;;;0.10;0.10;;;7.50;99.90;;;;;;5027060;28;20631;-69
2022/01/28 13:57:29;;;;;;;0.10;0.10;;;7.50;99.90;;;;;;5048756;28;20637;-70
2022/01/28 14:00:02;;;;;;;0.10;0.10;;;7.50;99.90;;;;;;5040697;28;20640;-67
2022/01/28 14:02:39;;;;;;;0.10;0.10;;;7.60;99.90;;;;;;5041801;28;20644;-69
2022/01/28 14:05:07;;;;;;;0.10;0.10;;;7.60;99.90;;;;;;5053369;28;20616;-69
2022/01/28 14:07:34;;;;;;;0.10;0.10;;;7.60;99.90;;;;;;5045936;28;20650;-67
2022/01/28 14:10:05;;;;;;;0.10;0.10;;;7.50;99.90;;;;;;5054023;28;20665;-69
2022/01/28 14:12:41;;;;;;;0.00;0.00;;;7.40;99.90;;;;;;5049849;28;20597;-69